Time;durP1;ratioP1;P1;durP2;ratioP2;P2;SDS_P1;SDS_P2;PMS_P1;PMS_P2;Temp;Humidity;BMP_temperature;BMP_pressure;BME280_temperature;BME280_humidity;BME280_pressure;Samples;Min_cycle;Max_cycle;Signal;HPM_P1;HPM_P2
2022/10/31 00:02:13;;;;;;;56.08;50.78;;;;;;;11.02;100.00;101413.69;5065222;28;20056;-78
2022/10/31 00:04:39;;;;;;;53.05;48.05;;;;;;;10.92;100.00;101421.94;5068144;28;20049;-78
2022/10/31 00:07:06;;;;;;;52.85;48.38;;;;;;;10.90;100.00;101419.50;5060768;28;20103;-79
2022/10/31 00:09:33;;;;;;;52.30;47.70;;;;;;;10.85;100.00;101413.94;5055117;28;20115;-80
2022/10/31 00:12:01;;;;;;;53.47;49.20;;;;;;;10.89;100.00;101415.22;5056353;28;20071;-79
2022/10/31 00:14:28;;;;;;;49.83;45.47;;;;;;;10.85;100.00;101416.59;5065340;28;20114;-78
2022/10/31 00:16:56;;;;;;;48.28;43.92;;;;;;;10.86;100.00;101420.91;5065730;28;20053;-79
2022/10/31 00:19:23;;;;;;;48.88;44.35;;;;;;;10.72;100.00;101416.47;5066654;28;20075;-79
2022/10/31 00:21:52;;;;;;;49.45;45.28;;;;;;;10.82;100.00;101416.97;5058630;28;20049;-79
2022/10/31 00:24:18;;;;;;;49.17;44.58;;;;;;;10.84;100.00;101414.13;5061824;28;20053;-79
2022/10/31 00:26:45;;;;;;;50.42;45.63;;;;;;;10.88;100.00;101412.72;5053631;28;20466;-80
2022/10/31 00:29:13;;;;;;;51.08;46.25;;;;;;;10.73;100.00;101415.44;5051449;28;20079;-80
2022/10/31 00:31:40;;;;;;;49.10;44.58;;;;;;;10.67;100.00;101416.19;5036154;28;20049;-80
2022/10/31 00:34:07;;;;;;;49.70;45.10;;;;;;;10.50;100.00;101413.00;5047650;28;20053;-80
2022/10/31 00:36:33;;;;;;;51.92;47.03;;;;;;;10.58;100.00;101409.38;5044783;28;20049;-80
2022/10/31 00:39:01;;;;;;;52.38;47.63;;;;;;;10.62;100.00;101410.63;5047248;28;20133;-82
2022/10/31 00:41:28;;;;;;;54.13;48.90;;;;;;;10.53;100.00;101425.88;5044813;28;20095;-80
2022/10/31 00:43:55;;;;;;;52.38;48.15;;;;;;;10.34;100.00;101426.47;5043057;28;20053;-80
2022/10/31 00:46:23;;;;;;;53.72;49.65;;;;;;;10.64;100.00;101428.03;5050388;28;20041;-79
2022/10/31 00:48:50;;;;;;;51.33;47.03;;;;;;;10.68;100.00;101431.97;5048707;28;20056;-81
2022/10/31 00:51:17;;;;;;;54.85;50.55;;;;;;;10.68;100.00;101428.47;5050397;28;20049;-80
2022/10/31 00:53:44;;;;;;;51.20;47.38;;;;;;;10.74;100.00;101430.38;5045919;28;20559;-82
2022/10/31 00:56:10;;;;;;;50.63;46.83;;;;;;;10.78;100.00;101427.16;5045087;28;20049;-80
2022/10/31 00:58:37;;;;;;;54.17;49.58;;;;;;;10.94;100.00;101433.22;5041303;28;20053;-79
2022/10/31 01:01:04;;;;;;;52.63;48.33;;;;;;;10.84;100.00;101414.94;5068458;22;20041;-95
2022/10/31 01:03:34;;;;;;;55.83;51.33;;;;;;;10.93;100.00;101426.28;5067965;28;20046;-96
2022/10/31 01:06:04;;;;;;;52.67;48.60;;;;;;;10.93;100.00;101434.25;5066184;28;20041;-95
2022/10/31 01:08:38;;;;;;;52.35;48.13;;;;;;;10.92;100.00;101427.25;5066851;28;20148;-95
2022/10/31 01:11:08;;;;;;;51.17;46.63;;;;;;;10.81;100.00;101425.97;5066893;28;20072;-96
2022/10/31 01:13:35;;;;;;;53.40;49.10;;;;;;;10.89;100.00;101432.97;5066992;28;20104;-95
2022/10/31 01:16:04;;;;;;;52.30;48.13;;;;;;;10.77;100.00;101430.84;5065217;28;20101;-96
2022/10/31 01:18:39;;;;;;;55.30;50.83;;;;;;;10.83;100.00;101434.53;5066014;28;20029;-95
2022/10/31 01:21:09;;;;;;;51.67;47.53;;;;;;;10.91;100.00;101436.25;5065997;28;20076;-95
2022/10/31 01:23:42;;;;;;;49.55;45.38;;;;;;;10.92;100.00;101430.78;5069114;28;20502;-96
2022/10/31 01:26:20;;;;;;;50.88;46.83;;;;;;;10.98;100.00;101434.47;5064704;28;20056;-96
2022/10/31 01:28:53;;;;;;;51.40;47.53;;;;;;;11.12;100.00;101428.28;5066553;28;20065;-96
2022/10/31 01:31:22;;;;;;;52.28;48.08;;;;;;;10.94;100.00;101415.44;5062793;28;20036;-96
2022/10/31 01:33:51;;;;;;;50.83;46.67;;;;;;;10.80;100.00;101412.84;5062908;28;20056;-96
2022/10/31 01:36:23;;;;;;;51.15;47.20;;;;;;;10.81;100.00;101410.00;5066058;28;20113;-96
2022/10/31 01:38:57;;;;;;;49.30;45.22;;;;;;;10.72;100.00;101405.84;5063865;28;20056;-95
2022/10/31 01:41:26;;;;;;;52.63;48.65;;;;;;;10.60;100.00;101410.00;5062941;28;20033;-96
2022/10/31 01:43:58;;;;;;;52.22;47.90;;;;;;;10.54;100.00;101415.06;5067842;28;20036;-96
2022/10/31 01:46:28;;;;;;;54.88;50.65;;;;;;;10.44;100.00;101422.53;5061682;28;20052;-96
2022/10/31 01:48:59;;;;;;;50.47;46.25;;;;;;;10.30;100.00;101431.34;5068132;28;20072;-95
2022/10/31 01:51:33;;;;;;;51.60;47.58;;;;;;;10.37;100.00;101442.03;5067803;28;20025;-95
2022/10/31 01:54:12;;;;;;;46.60;42.72;;;;;;;10.28;100.00;101430.69;5061878;28;20048;-94
2022/10/31 01:56:47;;;;;;;46.13;42.42;;;;;;;10.25;100.00;101441.66;5065968;28;20032;-96
2022/10/31 01:59:18;;;;;;;47.03;43.25;;;;;;;10.17;100.00;101453.22;5067975;28;20071;-95
2022/10/31 02:01:45;;;;;;;47.40;43.53;;;;;;;10.15;100.00;101444.59;5058908;28;20064;-96
2022/10/31 02:04:13;;;;;;;49.67;45.55;;;;;;;9.96;100.00;101461.94;5064520;28;20101;-96
2022/10/31 02:06:56;;;;;;;51.10;47.40;;;;;;;9.72;100.00;101459.53;5072324;28;20041;-96
2022/10/31 02:09:24;;;;;;;50.47;46.33;;;;;;;9.63;100.00;101456.97;5072389;28;20037;-95
2022/10/31 02:11:53;;;;;;;49.53;45.72;;;;;;;9.34;100.00;101471.00;5071548;28;20029;-95
2022/10/31 02:14:23;;;;;;;52.70;48.58;;;;;;;9.72;100.00;101470.16;5069918;28;20032;-95
2022/10/31 02:16:50;;;;;;;52.25;47.47;;;;;;;9.54;100.00;101465.19;5062125;28;20092;-95
2022/10/31 02:19:29;;;;;;;53.22;49.13;;;;;;;9.66;100.00;101466.41;5072133;28;20037;-95
2022/10/31 02:22:03;;;;;;;49.08;45.28;;;;;;;9.29;100.00;101462.78;5069051;28;20045;-95
2022/10/31 02:24:46;;;;;;;54.30;49.55;;;;;;;9.47;100.00;101465.09;5072029;28;20112;-96
2022/10/31 02:27:31;;;;;;;51.58;47.25;;;;;;;9.50;100.00;101466.53;5071806;28;20069;-96
2022/10/31 02:30:11;;;;;;;48.95;44.72;;;;;;;9.20;100.00;101482.41;5071656;28;20105;-96
2022/10/31 02:33:07;;;;;;;51.10;46.95;;;;;;;9.72;100.00;101481.59;5077020;28;20045;-96
2022/10/31 02:35:55;;;;;;;53.13;49.05;;;;;;;9.64;100.00;101487.78;5067147;28;20155;-96
2022/10/31 02:38:31;;;;;;;52.10;48.28;;;;;;;9.79;100.00;101473.72;5067406;28;20034;-95
2022/10/31 02:41:04;;;;;;;51.08;47.45;;;;;;;9.54;100.00;101479.28;5070112;28;20096;-95
2022/10/31 02:46:30;;;;;;;56.00;51.90;;;;;;;9.74;100.00;101481.38;5064016;28;20080;-95
2022/10/31 02:49:06;;;;;;;52.30;48.50;;;;;;;9.67;100.00;101489.25;5071641;28;20097;-95
2022/10/31 02:51:33;;;;;;;47.70;43.95;;;;;;;9.21;100.00;101477.91;5061842;28;20049;-96
2022/10/31 02:54:07;;;;;;;52.65;48.30;;;;;;;9.20;100.00;101482.41;5073158;28;20025;-96
2022/10/31 02:56:34;;;;;;;52.65;48.58;;;;;;;9.40;100.00;101482.72;5065656;28;20033;-95
2022/10/31 02:59:06;;;;;;;47.72;43.72;;;;;;;8.95;100.00;101474.59;5069492;28;20064;-94
2022/10/31 03:02:04;;;;;;;51.63;47.08;;;;;;;9.34;100.00;101496.69;5058644;23;20056;-80
2022/10/31 03:04:57;;;;;;;51.08;46.85;;;;;;;8.74;100.00;101500.91;5053044;28;20053;-79
2022/10/31 03:07:31;;;;;;;54.10;49.53;;;;;;;9.27;100.00;101501.06;5052694;28;20079;-80
2022/10/31 03:10:06;;;;;;;50.33;46.35;;;;;;;9.18;100.00;101503.78;5054468;28;20468;-78
2022/10/31 03:12:40;;;;;;;53.53;48.70;;;;;;;9.47;100.00;101510.19;5051598;28;20370;-79
2022/10/31 03:15:15;;;;;;;52.33;48.03;;;;;;;9.44;100.00;101507.88;5050866;28;20517;-79
2022/10/31 03:17:51;;;;;;;50.92;46.67;;;;;;;9.34;100.00;101510.75;5055389;28;20049;-80
2022/10/31 03:20:25;;;;;;;50.58;45.95;;;;;;;9.44;100.00;101507.88;5041963;28;20057;-82
2022/10/31 03:22:55;;;;;;;52.53;47.95;;;;;;;9.28;100.00;101522.06;5055166;28;20048;-80
2022/10/31 03:25:23;;;;;;;51.40;47.03;;;;;;;8.71;100.00;101522.44;5054983;28;20106;-80
2022/10/31 03:27:53;;;;;;;58.28;53.03;;;;;;;8.93;100.00;101528.81;5052699;28;20126;-81
2022/10/31 03:30:20;;;;;;;59.30;54.58;;;;;;;8.99;100.00;101529.94;5054244;28;20126;-79
2022/10/31 03:32:51;;;;;;;55.03;50.53;;;;;;;8.71;100.00;101527.75;5055060;28;20060;-80
2022/10/31 03:35:23;;;;;;;55.60;50.88;;;;;;;8.80;100.00;101531.19;5053868;28;20053;-79
2022/10/31 03:37:53;;;;;;;52.92;48.40;;;;;;;8.66;100.00;101530.09;5054486;28;20099;-81
2022/10/31 03:40:22;;;;;;;51.10;46.65;;;;;;;8.76;100.00;101537.84;5053855;28;20474;-81
2022/10/31 03:42:55;;;;;;;51.67;47.42;;;;;;;8.05;100.00;101550.97;5054311;28;20114;-80
2022/10/31 03:45:31;;;;;;;54.95;50.35;;;;;;;8.38;100.00;101549.09;5054371;28;20048;-81
2022/10/31 03:48:00;;;;;;;48.25;44.10;;;;;;;8.19;100.00;101555.56;5054226;28;20051;-80
2022/10/31 03:50:37;;;;;;;49.60;45.40;;;;;;;7.96;100.00;101565.22;5054850;28;20060;-79
2022/10/31 03:53:10;;;;;;;57.20;52.20;;;;;;;8.25;100.00;101552.22;5055043;28;20114;-81
2022/10/31 03:55:42;;;;;;;53.00;48.72;;;;;;;7.62;100.00;101558.28;5056060;28;20059;-80
2022/10/31 03:58:13;;;;;;;;;;;;;;;8.08;100.00;101547.16;5059707;28;20122;-78
2022/10/31 04:00:44;;;;;;;49.42;44.97;;;;;;;8.01;100.00;101553.13;5049196;28;20265;-79
2022/10/31 04:03:15;;;;;;;51.67;47.83;;;;;;;7.96;100.00;101554.63;5051790;28;20106;-81
2022/10/31 04:05:47;;;;;;;52.83;48.33;;;;;;;8.13;100.00;101552.75;5053100;28;20402;-81
2022/10/31 04:08:18;;;;;;;48.65;44.67;;;;;;;7.96;100.00;101558.09;5053438;28;20049;-80
2022/10/31 04:10:48;;;;;;;52.75;48.58;;;;;;;7.94;100.00;101544.22;5040590;28;20040;-81
2022/10/31 04:13:20;;;;;;;52.67;48.35;;;;;;;7.75;100.00;101549.88;5053243;28;20429;-79
2022/10/31 04:15:47;;;;;;;52.05;48.15;;;;;;;7.69;100.00;101559.28;5052544;28;20045;-82
2022/10/31 04:18:15;;;;;;;51.22;47.28;;;;;;;7.68;100.00;101556.78;5053075;28;20045;-79
2022/10/31 04:20:43;;;;;;;50.85;46.90;;;;;;;7.68;100.00;101564.72;5053417;28;20061;-81
2022/10/31 04:23:19;;;;;;;51.53;47.28;;;;;;;7.29;100.00;101576.78;5052951;28;20060;-82
2022/10/31 04:25:46;;;;;;;53.92;49.42;;;;;;;7.25;100.00;101586.03;5047938;28;20077;-81
2022/10/31 04:28:12;;;;;;;55.75;51.35;;;;;;;7.36;100.00;101578.78;5051925;28;20045;-81
2022/10/31 04:30:39;;;;;;;53.30;49.05;;;;;;;7.32;100.00;101576.47;5052935;28;20053;-82
2022/10/31 04:33:06;;;;;;;56.45;51.47;;;;;;;7.46;100.00;101572.34;5052699;28;20095;-80
2022/10/31 04:35:32;;;;;;;55.65;51.05;;;;;;;7.46;100.00;101571.50;5052401;28;20052;-82
2022/10/31 04:38:01;;;;;;;60.90;55.63;;;;;;;7.47;100.00;101575.78;5054518;28;20447;-80
2022/10/31 04:40:27;;;;;;;60.55;55.40;;;;;;;7.39;100.00;101575.81;5056876;28;20049;-81
2022/10/31 04:42:54;;;;;;;50.92;46.15;;;;;;;7.39;100.00;101573.16;5053427;28;20051;-80
2022/10/31 04:45:23;;;;;;;50.78;45.92;;;;;;;7.38;100.00;101572.31;5051773;28;20052;-80
2022/10/31 04:47:50;;;;;;;49.40;44.90;;;;;;;7.42;100.00;101583.41;5053183;28;20451;-82
2022/10/31 04:50:16;;;;;;;47.85;43.60;;;;;;;6.97;100.00;101584.66;5050681;28;20402;-80
2022/10/31 04:52:45;;;;;;;47.80;42.97;;;;;;;6.63;100.00;101590.81;5052089;28;20049;-81
2022/10/31 04:55:14;;;;;;;47.47;43.10;;;;;;;6.79;100.00;101592.69;5051593;28;20481;-80
2022/10/31 04:57:44;;;;;;;48.47;43.78;;;;;;;6.78;100.00;101591.03;5048099;28;20045;-81
2022/10/31 05:00:13;;;;;;;43.58;39.65;;;;;;;6.57;100.00;101597.53;5051048;28;20055;-79
2022/10/31 05:02:45;;;;;;;47.20;42.85;;;;;;;6.81;100.00;101601.28;5050659;28;20045;-81
2022/10/31 05:05:12;;;;;;;49.58;45.08;;;;;;;7.09;100.00;101607.13;5046999;28;20055;-80
2022/10/31 05:07:41;;;;;;;46.00;41.90;;;;;;;7.20;100.00;101612.13;5054693;28;20114;-78
2022/10/31 05:10:09;;;;;;;50.80;45.75;;;;;;;7.28;100.00;101612.13;5055888;28;20145;-79
2022/10/31 05:12:38;;;;;;;47.53;43.17;;;;;;;7.19;100.00;101614.91;5048048;28;20049;-78
2022/10/31 05:15:06;;;;;;;46.95;42.78;;;;;;;7.12;100.00;101617.38;5057231;28;20451;-79
2022/10/31 05:17:33;;;;;;;51.65;46.70;;;;;;;7.36;100.00;101613.16;5054759;28;20041;-80
2022/10/31 05:20:01;;;;;;;44.33;40.50;;;;;;;7.05;100.00;101613.72;5055570;28;20049;-79
2022/10/31 05:22:28;;;;;;;48.08;43.90;;;;;;;7.52;100.00;101613.16;5052630;28;20064;-79
2022/10/31 05:24:55;;;;;;;57.75;51.83;;;;;;;7.56;100.00;101615.31;5052429;28;20060;-80
2022/10/31 05:27:22;;;;;;;54.58;49.38;;;;;;;7.72;100.00;101611.03;5050941;28;20060;-81
2022/10/31 05:29:50;;;;;;;52.70;47.35;;;;;;;7.84;100.00;101611.50;5048799;28;20052;-81
2022/10/31 05:32:16;;;;;;;49.70;44.80;;;;;;;7.82;100.00;101618.78;5052226;28;20045;-79
2022/10/31 05:34:44;;;;;;;51.05;46.33;;;;;;;7.78;100.00;101615.66;5048581;28;20049;-78
2022/10/31 05:37:11;;;;;;;49.65;44.95;;;;;;;7.87;100.00;101619.13;5047099;28;20041;-78
2022/10/31 05:39:37;;;;;;;49.03;44.33;;;;;;;8.06;100.00;101623.25;5051710;28;20057;-79
2022/10/31 05:42:04;;;;;;;49.28;44.72;;;;;;;8.14;100.00;101629.34;5059269;28;20166;-79
2022/10/31 05:44:32;;;;;;;50.40;45.58;;;;;;;8.59;100.00;101630.56;5059645;28;20055;-78
2022/10/31 05:47:02;;;;;;;52.20;47.63;;;;;;;8.81;100.00;101634.34;5058349;28;20045;-78
2022/10/31 05:49:29;;;;;;;52.85;47.85;;;;;;;9.17;100.00;101624.06;5060147;28;20041;-79
2022/10/31 05:51:56;;;;;;;50.65;46.65;;;;;;;9.54;100.00;101625.13;5056395;28;20054;-80
2022/10/31 05:54:23;;;;;;;52.72;47.58;;;;;;;9.96;100.00;101628.31;5044735;28;20052;-79
2022/10/31 05:56:49;;;;;;;47.70;43.90;;;;;;;10.25;100.00;101630.16;5054479;28;20049;-79
2022/10/31 05:59:16;;;;;;;48.28;44.08;;;;;;;10.19;100.00;101629.06;5051671;28;20037;-81
2022/10/31 06:01:43;;;;;;;49.20;44.90;;;;;;;10.59;100.00;101635.00;5055896;28;20061;-81
2022/10/31 06:04:11;;;;;;;49.67;45.20;;;;;;;10.94;100.00;101640.53;5055346;28;20114;-81
2022/10/31 06:06:38;;;;;;;48.42;44.28;;;;;;;11.31;100.00;101639.53;5055343;28;20057;-80
2022/10/31 06:09:04;;;;;;;47.75;43.80;;;;;;;11.52;100.00;101637.91;5055259;28;20056;-81
2022/10/31 06:11:31;;;;;;;44.75;41.03;;;;;;;10.99;100.00;101638.97;5055743;28;20114;-80
2022/10/31 06:13:58;;;;;;;47.58;43.88;;;;;;;11.60;100.00;101640.44;5055578;28;20382;-78
2022/10/31 06:16:25;;;;;;;48.95;45.08;;;;;;;11.79;100.00;101634.47;5055058;28;20041;-78
2022/10/31 06:18:51;;;;;;;47.72;44.13;;;;;;;12.09;100.00;101637.00;5054434;28;20061;-81
2022/10/31 06:21:19;;;;;;;46.65;43.03;;;;;;;12.04;100.00;101640.25;5052945;28;20574;-83
2022/10/31 06:23:46;;;;;;;50.13;46.08;;;;;;;12.30;100.00;101636.13;5054144;28;20041;-81
2022/10/31 06:26:13;;;;;;;47.80;43.50;;;;;;;12.91;100.00;101638.09;5053669;28;20049;-81
2022/10/31 06:28:40;;;;;;;46.47;42.85;;;;;;;13.04;100.00;101648.81;5053330;28;20057;-82
2022/10/31 06:31:07;;;;;;;44.42;40.88;;;;;;;13.30;100.00;101645.44;5059729;28;20079;-79
2022/10/31 06:33:34;;;;;;;44.10;39.90;;;;;;;13.42;100.00;101656.34;5059959;28;20045;-78
2022/10/31 06:36:02;;;;;;;44.33;40.47;;;;;;;13.27;100.00;101657.34;5055917;28;20477;-78
2022/10/31 06:38:30;;;;;;;43.75;39.97;;;;;;;14.37;100.00;101654.31;5054958;28;20048;-81
2022/10/31 06:40:56;;;;;;;41.70;38.05;;;;;;;13.87;100.00;101654.78;5055385;28;20114;-81
2022/10/31 06:43:23;;;;;;;42.47;39.05;;;;;;;13.87;100.00;101651.28;5055238;28;20057;-80
2022/10/31 06:45:50;;;;;;;44.10;40.60;;;;;;;14.15;100.00;101649.22;5055677;28;20053;-79
2022/10/31 06:48:17;;;;;;;43.40;39.75;;;;;;;14.27;100.00;101645.94;5055708;28;20448;-78
2022/10/31 06:50:44;;;;;;;43.90;40.03;;;;;;;13.77;100.00;101659.72;5056424;28;20497;-79
2022/10/31 06:53:11;;;;;;;44.20;40.45;;;;;;;13.56;100.00;101657.22;5050642;28;20048;-80
2022/10/31 06:55:39;;;;;;;43.03;38.88;;;;;;;14.23;100.00;101650.06;5049482;28;20132;-80
2022/10/31 06:58:06;;;;;;;40.53;37.30;;;;;;;14.71;100.00;101647.94;5055431;28;20054;-80
2022/10/31 07:00:34;;;;;;;41.55;38.22;;;;;;;14.93;100.00;101648.47;5051539;28;20045;-80
2022/10/31 07:03:02;;;;;;;43.05;39.47;;;;;;;15.37;100.00;101652.16;5054246;28;20045;-81
2022/10/31 07:05:30;;;;;;;43.38;39.97;;;;;;;15.67;100.00;101654.22;5054594;28;20118;-79
2022/10/31 07:07:59;;;;;;;48.20;44.20;;;;;;;15.88;100.00;101651.19;5055895;28;20049;-81
2022/10/31 07:10:28;;;;;;;46.05;42.03;;;;;;;16.07;100.00;101656.59;5052086;28;20044;-79
2022/10/31 07:12:57;;;;;;;70.20;55.97;;;;;;;16.11;100.00;101657.84;5050347;28;20126;-80
2022/10/31 07:15:24;;;;;;;43.00;39.90;;;;;;;16.28;100.00;101653.56;5057185;28;20468;-78
2022/10/31 07:17:52;;;;;;;44.28;41.05;;;;;;;16.62;100.00;101657.53;5057729;28;20048;-77
2022/10/31 07:20:19;;;;;;;49.45;44.78;;;;;;;16.27;100.00;101658.06;5055345;28;20492;-79
2022/10/31 07:22:46;;;;;;;55.95;50.00;;;;;;;15.98;100.00;101651.56;5055736;28;20500;-78
2022/10/31 07:25:13;;;;;;;80.70;59.67;;;;;;;16.33;100.00;101645.66;5054734;28;20064;-78
2022/10/31 07:27:41;;;;;;;49.28;44.50;;;;;;;16.78;100.00;101647.28;5047000;28;20114;-80
2022/10/31 07:30:14;;;;;;;65.30;52.75;;;;;;;17.05;100.00;101648.56;5054053;28;20056;-79
2022/10/31 07:32:42;;;;;;;42.60;39.35;;;;;;;17.36;100.00;101649.41;5047039;28;20049;-78
2022/10/31 07:35:10;;;;;;;43.83;40.65;;;;;;;18.22;100.00;101633.81;5051356;28;20053;-78
2022/10/31 07:37:37;;;;;;;58.65;51.20;;;;;;;18.65;100.00;101637.97;5053888;28;20056;-77
2022/10/31 07:40:05;;;;;;;47.05;42.60;;;;;;;18.92;100.00;101651.72;5050248;28;20045;-79
2022/10/31 07:42:36;;;;;;;41.88;38.42;;;;;;;18.79;100.00;101649.28;5047426;28;20119;-79
2022/10/31 07:45:03;;;;;;;42.42;39.53;;;;;;;19.57;100.00;101648.63;5053273;28;20464;-79
2022/10/31 07:47:38;;;;;;;42.13;39.20;;;;;;;19.78;100.00;101649.81;5053189;28;20123;-79
2022/10/31 07:50:06;;;;;;;50.38;45.50;;;;;;;19.51;100.00;101646.06;5052734;28;20474;-81
2022/10/31 07:52:33;;;;;;;61.55;51.92;;;;;;;20.29;100.00;101655.16;5053746;28;20460;-78
2022/10/31 07:54:59;;;;;;;50.33;45.45;;;;;;;20.08;100.00;101656.75;5052706;28;20659;-80
2022/10/31 07:57:27;;;;;;;54.63;48.70;;;;;;;21.00;100.00;101658.00;5052996;28;20114;-81
2022/10/31 07:59:54;;;;;;;47.95;44.03;;;;;;;20.65;100.00;101659.19;5052931;28;20110;-80
2022/10/31 08:02:20;;;;;;;45.58;42.03;;;;;;;20.78;100.00;101656.13;5046385;28;20078;-79
2022/10/31 08:04:49;;;;;;;54.85;49.15;;;;;;;21.94;99.22;101667.56;5052282;28;20052;-80
2022/10/31 08:07:16;;;;;;;46.28;42.15;;;;;;;22.16;94.71;101667.44;5053928;28;20122;-79
2022/10/31 08:09:42;;;;;;;72.43;58.95;;;;;;;22.92;90.12;101664.34;5053671;28;20053;-79
2022/10/31 08:12:09;;;;;;;46.65;42.42;;;;;;;22.62;84.63;101663.13;5052696;28;20111;-79
2022/10/31 08:14:36;;;;;;;48.83;45.05;;;;;;;22.49;86.95;101657.41;5054449;28;20053;-78
2022/10/31 08:17:03;;;;;;;47.47;43.40;;;;;;;22.57;84.03;101656.88;5056038;28;20044;-78
2022/10/31 08:19:30;;;;;;;50.08;45.92;;;;;;;22.44;79.94;101660.88;5056006;28;20052;-78
2022/10/31 08:21:58;;;;;;;46.63;43.03;;;;;;;22.76;83.34;101649.94;5053961;28;20122;-79
2022/10/31 08:24:25;;;;;;;49.75;46.10;;;;;;;23.93;79.21;101653.94;5053038;28;20056;-80
2022/10/31 08:26:52;;;;;;;49.17;45.13;;;;;;;21.24;96.69;101659.34;5052493;28;20041;-78
2022/10/31 08:29:19;;;;;;;49.45;45.65;;;;;;;20.68;100.00;101653.28;5052737;28;20049;-77
2022/10/31 08:31:46;;;;;;;51.60;47.15;;;;;;;20.86;98.35;101652.16;5053110;28;20550;-79
2022/10/31 08:34:13;;;;;;;51.67;47.53;;;;;;;21.93;100.00;101647.81;5051105;28;20056;-79
2022/10/31 08:36:42;;;;;;;66.18;59.78;;;;;;;23.85;84.92;101646.38;5055471;28;20057;-78
2022/10/31 08:39:10;;;;;;;71.30;64.32;;;;;;;22.44;88.22;101660.88;5055603;28;20056;-78
2022/10/31 08:41:37;;;;;;;66.88;60.40;;;;;;;20.82;100.00;101653.75;5050515;28;20057;-78
2022/10/31 08:44:05;;;;;;;73.78;66.90;;;;;;;22.31;91.59;101658.66;5052346;28;20040;-80
2022/10/31 08:46:31;;;;;;;49.97;46.17;;;;;;;23.11;84.23;101653.84;5051121;28;20053;-80
2022/10/31 08:48:58;;;;;;;49.33;45.25;;;;;;;24.88;66.96;101653.16;5050378;28;20393;-84
2022/10/31 08:51:25;;;;;;;48.88;44.72;;;;;;;24.57;66.87;101647.03;5043718;28;20095;-82
2022/10/31 08:53:51;;;;;;;47.58;43.63;;;;;;;22.91;84.42;101648.38;5051901;28;20052;-78
2022/10/31 08:56:20;;;;;;;47.97;44.38;;;;;;;24.59;69.30;101645.66;5051667;28;20049;-80
2022/10/31 08:58:46;;;;;;;46.55;43.15;;;;;;;23.65;63.36;101652.56;5051472;28;20080;-80
2022/10/31 09:01:13;;;;;;;48.10;44.08;;;;;;;21.52;89.73;101662.91;5050895;28;20053;-81
2022/10/31 09:03:40;;;;;;;48.30;44.47;;;;;;;23.45;80.13;101656.91;5051364;28;20052;-79
2022/10/31 09:06:08;;;;;;;48.08;44.15;;;;;;;21.84;96.59;101659.38;5051631;28;20053;-80
2022/10/31 09:08:36;;;;;;;48.40;44.00;;;;;;;22.11;90.18;101667.41;5051742;28;20127;-77
2022/10/31 09:11:03;;;;;;;46.92;43.13;;;;;;;22.98;84.13;101660.59;5051440;28;20106;-78
2022/10/31 09:13:31;;;;;;;48.47;44.67;;;;;;;23.75;84.71;101658.84;5052083;28;20053;-78
2022/10/31 09:15:58;;;;;;;45.28;41.53;;;;;;;25.09;63.26;101649.25;5052422;28;20542;-80
2022/10/31 09:18:27;;;;;;;46.40;42.65;;;;;;;24.05;67.49;101646.31;5051482;28;20053;-80
2022/10/31 09:20:54;;;;;;;49.35;45.50;;;;;;;22.89;85.16;101651.31;5052015;28;20449;-78
2022/10/31 09:23:23;;;;;;;49.13;44.75;;;;;;;23.61;76.84;101652.31;5052198;28;20049;-78
2022/10/31 09:25:52;;;;;;;47.42;43.80;;;;;;;21.36;99.60;101653.00;5052198;28;20049;-77
2022/10/31 09:28:20;;;;;;;49.90;45.80;;;;;;;20.83;100.00;101649.16;5052636;28;20481;-82
2022/10/31 09:30:49;;;;;;;51.97;48.38;;;;;;;21.96;89.76;101654.59;5052130;28;20098;-78
2022/10/31 09:33:16;;;;;;;46.88;43.53;;;;;;;22.22;99.17;101658.31;5052041;28;20501;-81
2022/10/31 09:35:43;;;;;;;48.65;45.15;;;;;;;20.35;100.00;101654.97;5052399;28;20049;-78
2022/10/31 09:38:11;;;;;;;47.85;44.08;;;;;;;20.71;100.00;101644.69;5052733;28;20060;-79
2022/10/31 09:40:40;;;;;;;48.08;44.47;;;;;;;21.52;98.54;101649.38;5052264;28;20044;-81
2022/10/31 09:43:16;;;;;;;48.95;45.03;;;;;;;22.06;100.00;101648.44;5051745;28;20048;-80
2022/10/31 09:45:54;;;;;;;51.03;47.13;;;;;;;20.85;100.00;101634.34;5052961;28;20053;-81
2022/10/31 09:48:50;;;;;;;50.92;47.13;;;;;;;21.62;100.00;101638.66;5052117;28;20571;-80
2022/10/31 09:51:21;;;;;;;48.75;45.05;;;;;;;21.72;97.63;101640.63;5050310;28;20048;-81
2022/10/31 09:53:52;;;;;;;46.80;43.30;;;;;;;22.13;100.00;101643.63;5052369;28;20048;-77
2022/10/31 09:56:21;;;;;;;46.58;42.85;;;;;;;21.75;92.72;101637.38;5052368;28;20053;-76
2022/10/31 09:58:53;;;;;;;47.95;44.05;;;;;;;21.07;96.44;101638.91;5052093;28;20111;-77
2022/10/31 10:01:36;;;;;;;46.78;42.67;;;;;;;21.90;93.15;101637.50;5052306;28;20057;-78
2022/10/31 10:04:11;;;;;;;49.67;45.45;;;;;;;22.38;89.88;101637.56;5049384;28;20053;-78
2022/10/31 10:06:43;;;;;;;50.20;46.17;;;;;;;22.59;92.61;101628.47;5049563;28;20444;-81
2022/10/31 10:09:11;;;;;;;357.43;191.33;;;;;;;21.84;97.21;101635.03;5048015;28;20053;-81
2022/10/31 10:11:48;;;;;;;60.47;54.30;;;;;;;22.58;92.50;101621.44;5051890;28;20138;-81
2022/10/31 10:14:29;;;;;;;54.15;49.72;;;;;;;22.63;80.25;101609.78;5051356;28;20060;-80
2022/10/31 10:17:09;;;;;;;57.00;51.47;;;;;;;22.58;95.77;101610.59;5052119;28;20118;-81
2022/10/31 10:20:03;;;;;;;68.95;61.58;;;;;;;22.40;91.30;101614.59;5051321;28;20045;-79
2022/10/31 10:22:38;;;;;;;46.10;42.70;;;;;;;21.63;85.71;101615.13;5051628;28;20048;-80
2022/10/31 10:25:16;;;;;;;47.38;43.75;;;;;;;21.57;91.51;101624.28;5053143;28;20110;-80
2022/10/31 10:28:02;;;;;;;55.35;50.35;;;;;;;23.04;93.41;101601.84;5055464;28;20057;-77
2022/10/31 10:30:36;;;;;;;57.47;51.97;;;;;;;23.75;85.23;101609.19;5055652;28;20114;-78
2022/10/31 10:33:12;;;;;;;55.78;50.60;;;;;;;23.67;74.70;101604.31;5055741;28;20041;-77
2022/10/31 10:35:44;;;;;;;51.67;47.63;;;;;;;22.54;86.21;101606.81;5055023;28;20052;-77
2022/10/31 10:38:16;;;;;;;48.22;44.88;;;;;;;22.37;91.52;101611.59;5055405;28;20118;-80
2022/10/31 10:40:43;;;;;;;;;;;;;;;21.73;85.22;101612.53;5055794;28;20118;-82
2022/10/31 10:43:22;;;;;;;45.47;41.75;;;;;;;21.78;93.44;101607.13;5055208;28;19924;-78
2022/10/31 10:48:51;;;;;;;47.00;43.47;;;;;;;23.34;75.61;101598.34;5054348;28;20138;-78
2022/10/31 10:51:23;;;;;;;44.88;41.83;;;;;;;23.71;59.34;101591.84;5048911;28;20091;-78
2022/10/31 10:54:13;;;;;;;46.60;43.13;;;;;;;23.99;73.86;101593.16;5053922;28;20079;-81
2022/10/31 10:56:57;;;;;;;46.65;43.25;;;;;;;25.33;69.24;101595.00;5048778;28;20473;-82
2022/10/31 10:59:24;;;;;;;50.20;46.00;;;;;;;23.04;69.25;101593.72;5053655;28;20106;-78
2022/10/31 11:01:52;;;;;;;47.33;43.90;;;;;;;24.31;76.22;101586.56;5055304;28;20056;-78
2022/10/31 11:04:31;;;;;;;45.65;42.20;;;;;;;24.50;66.72;101582.16;5054995;28;20056;-79
2022/10/31 11:06:59;;;;;;;46.97;43.58;;;;;;;24.37;65.86;101588.19;5054602;28;20049;-80
2022/10/31 11:09:26;;;;;;;45.97;42.85;;;;;;;22.91;74.98;101588.78;5054933;28;20053;-81
2022/10/31 11:11:54;;;;;;;47.65;44.55;;;;;;;25.02;63.95;101586.22;5054979;28;20541;-78
2022/10/31 11:14:21;;;;;;;46.33;43.22;;;;;;;26.64;53.44;101582.22;5055133;28;20061;-79
2022/10/31 11:16:51;;;;;;;46.95;43.85;;;;;;;25.55;53.71;101577.41;5055209;28;20048;-80
2022/10/31 11:19:20;;;;;;;45.58;42.10;;;;;;;25.55;53.63;101577.41;5053866;28;20072;-79
2022/10/31 11:21:49;;;;;;;45.42;41.90;;;;;;;25.32;57.79;101582.50;5054797;28;20048;-79
2022/10/31 11:24:18;;;;;;;45.10;41.42;;;;;;;26.41;53.04;101567.50;5054517;28;20053;-79
2022/10/31 11:26:47;;;;;;;46.60;43.13;;;;;;;25.92;51.68;101573.28;5054131;28;20057;-79